createdAt,value
2023-01-13T00:01:45.643Z,10.10
2023-01-13T00:04:13.886Z,9.50
2023-01-13T00:06:42.213Z,8.90
2023-01-13T00:09:11.089Z,10.70
2023-01-13T00:11:39.414Z,9.50
2023-01-13T00:14:07.758Z,8.90
2023-01-13T00:16:36.623Z,9.80
2023-01-13T00:19:04.910Z,10.00
2023-01-13T00:21:33.132Z,8.60
2023-01-13T00:24:01.420Z,8.70
2023-01-13T00:26:36.062Z,8.80
2023-01-13T00:29:04.390Z,10.50
2023-01-13T00:31:33.386Z,10.10
2023-01-13T00:34:19.293Z,9.50
2023-01-13T00:36:48.334Z,8.50
2023-01-13T00:39:17.194Z,9.10
2023-01-13T00:42:04.045Z,9.00
2023-01-13T00:44:32.320Z,8.40
2023-01-13T00:47:01.856Z,9.30
2023-01-13T00:49:31.578Z,10.80
2023-01-13T00:52:43.935Z,9.10
2023-01-13T00:55:13.228Z,6.20
2023-01-13T00:57:43.169Z,6.90
2023-01-13T01:00:14.861Z,9.90
2023-01-13T01:02:44.908Z,9.60
2023-01-13T01:05:13.197Z,10.00
2023-01-13T01:07:41.520Z,9.30
2023-01-13T01:10:10.415Z,8.20
2023-01-13T01:12:58.666Z,8.60
2023-01-13T01:15:27.027Z,8.60
2023-01-13T01:17:55.287Z,7.80
2023-01-13T01:20:30.195Z,8.10
2023-01-13T01:22:58.956Z,8.60
2023-01-13T01:25:27.141Z,6.90
2023-01-13T01:27:55.519Z,9.50
2023-01-13T01:30:23.773Z,8.90
2023-01-13T01:32:51.944Z,8.50
2023-01-13T01:35:20.340Z,7.60
2023-01-13T01:37:48.786Z,9.70
2023-01-13T01:40:17.464Z,10.30
2023-01-13T01:43:04.315Z,11.00
2023-01-13T01:45:32.590Z,8.80
2023-01-13T01:48:03.930Z,9.50
2023-01-13T01:50:33.814Z,10.60
2023-01-13T01:53:19.076Z,8.40
2023-01-13T01:55:47.527Z,10.90
2023-01-13T01:58:17.748Z,10.70
2023-01-13T02:00:46.211Z,9.00
2023-01-13T02:03:17.490Z,10.00
2023-01-13T02:05:45.771Z,8.60
2023-01-13T02:08:15.180Z,8.10
2023-01-13T02:10:47.414Z,10.90
2023-01-13T02:13:16.617Z,8.50
2023-01-13T02:15:58.048Z,9.10
2023-01-13T02:18:53.955Z,9.30
2023-01-13T02:21:34.208Z,9.60
2023-01-13T02:24:53.018Z,9.60
2023-01-13T02:27:53.064Z,8.90
2023-01-13T02:30:45.865Z,8.40
2023-01-13T02:33:36.769Z,8.60
2023-01-13T02:36:15.743Z,7.80
2023-01-13T02:38:53.904Z,7.90
2023-01-13T02:41:57.717Z,8.00
2023-01-13T02:44:32.140Z,7.70
2023-01-13T02:47:32.828Z,7.80
2023-01-13T02:50:06.333Z,7.00
2023-01-13T02:52:46.775Z,7.00
2023-01-13T02:55:20.263Z,7.20
2023-01-13T02:57:53.480Z,6.90
2023-01-13T03:00:49.481Z,8.30
2023-01-13T03:03:21.859Z,7.40
2023-01-13T03:05:56.477Z,7.20
2023-01-13T03:08:30.834Z,7.70
2023-01-13T03:11:05.911Z,7.80
2023-01-13T03:14:30.534Z,9.60
2023-01-13T03:17:17.321Z,8.00
2023-01-13T03:20:07.941Z,8.30
2023-01-13T03:23:22.662Z,10.30
2023-01-13T03:26:07.168Z,8.40
2023-01-13T03:28:52.704Z,9.20
2023-01-13T03:31:30.444Z,8.10
2023-01-13T03:34:04.292Z,8.10
2023-01-13T03:36:35.135Z,9.60
2023-01-13T03:39:10.667Z,8.60
2023-01-13T03:41:49.475Z,8.10
2023-01-13T03:44:25.769Z,9.40
2023-01-13T03:47:09.616Z,9.40
2023-01-13T03:50:17.551Z,8.50
2023-01-13T03:52:50.717Z,10.30
2023-01-13T03:55:23.344Z,10.60
2023-01-13T03:57:54.554Z,9.10
2023-01-13T04:00:28.182Z,8.50
2023-01-13T04:03:12.138Z,9.40
2023-01-13T04:06:20.436Z,9.40
2023-01-13T04:09:02.160Z,10.20
2023-01-13T04:11:44.076Z,10.20
2023-01-13T04:14:16.550Z,8.50
2023-01-13T04:16:45.320Z,8.20
2023-01-13T04:19:14.632Z,13.60
2023-01-13T04:21:43.297Z,10.40
2023-01-13T04:24:11.812Z,8.90
2023-01-13T04:26:40.167Z,10.10
2023-01-13T04:29:09.801Z,9.60
2023-01-13T04:31:38.720Z,11.20
2023-01-13T04:34:07.081Z,10.80
2023-01-13T04:36:36.177Z,9.30
2023-01-13T04:39:04.558Z,9.30
2023-01-13T04:41:51.491Z,12.40
2023-01-13T04:44:20.138Z,11.70
2023-01-13T04:46:48.438Z,15.40
2023-01-13T04:49:17.721Z,14.90
2023-01-13T04:51:45.961Z,14.60
2023-01-13T04:54:35.001Z,10.40
2023-01-13T04:57:20.266Z,10.10
2023-01-13T04:59:53.564Z,8.80
2023-01-13T05:02:26.992Z,8.30
2023-01-13T05:04:56.248Z,8.90
2023-01-13T05:07:24.730Z,9.80
2023-01-13T05:09:53.832Z,10.60
2023-01-13T05:12:41.714Z,10.20
2023-01-13T05:15:33.530Z,10.70
2023-01-13T05:18:04.193Z,11.10
2023-01-13T05:20:33.840Z,8.20
2023-01-13T05:23:21.190Z,10.00
2023-01-13T05:25:50.526Z,8.90
2023-01-13T05:28:19.604Z,10.10
2023-01-13T05:30:49.702Z,10.30
2023-01-13T05:33:20.546Z,11.10
2023-01-13T05:35:49.920Z,8.90
2023-01-13T05:38:18.896Z,9.90
2023-01-13T05:41:05.967Z,9.40
2023-01-13T05:43:35.149Z,8.30
2023-01-13T05:46:07.101Z,10.20
2023-01-13T05:48:40.604Z,8.90
2023-01-13T05:51:11.608Z,10.90
2023-01-13T05:53:44.026Z,9.10
2023-01-13T05:56:12.484Z,10.80
2023-01-13T05:58:43.071Z,10.50
2023-01-13T06:01:11.646Z,11.10
2023-01-13T06:03:40.398Z,13.10
2023-01-13T06:06:09.258Z,13.40
2023-01-13T06:08:39.917Z,13.00
2023-01-13T06:11:08.516Z,10.40
2023-01-13T06:13:37.697Z,10.20
2023-01-13T06:16:06.430Z,11.90
2023-01-13T06:18:34.722Z,13.30
2023-01-13T06:21:02.982Z,10.80
2023-01-13T06:23:35.406Z,11.50
2023-01-13T06:26:20.034Z,11.40
2023-01-13T06:28:50.832Z,10.60
2023-01-13T06:31:20.237Z,11.30
2023-01-13T06:33:58.018Z,14.70
2023-01-13T06:36:37.029Z,15.50
2023-01-13T06:39:06.606Z,14.40
2023-01-13T06:41:53.738Z,11.60
2023-01-13T06:44:24.313Z,10.30
2023-01-13T06:46:52.896Z,10.70
2023-01-13T06:49:21.867Z,11.80
2023-01-13T06:51:50.716Z,13.00
2023-01-13T06:54:19.052Z,10.60
2023-01-13T06:56:47.408Z,11.40
2023-01-13T06:59:15.832Z,13.40
2023-01-13T07:01:44.323Z,13.20
2023-01-13T07:04:12.851Z,13.20
2023-01-13T07:06:41.139Z,9.10
2023-01-13T07:09:10.470Z,13.90
2023-01-13T07:11:39.024Z,13.10
2023-01-13T07:14:26.398Z,11.60
2023-01-13T07:16:55.619Z,11.50
2023-01-13T07:19:24.176Z,9.70
2023-01-13T07:21:53.108Z,11.90
2023-01-13T07:24:22.749Z,11.90
2023-01-13T07:26:53.907Z,12.30
2023-01-13T07:29:22.427Z,12.70
2023-01-13T07:31:50.897Z,13.50
2023-01-13T07:34:19.516Z,10.90
2023-01-13T07:36:47.773Z,13.10
2023-01-13T07:39:16.118Z,11.00
2023-01-13T07:42:03.114Z,9.60
2023-01-13T07:44:32.572Z,14.50
2023-01-13T07:47:00.765Z,11.80
2023-01-13T07:49:29.059Z,11.30
2023-01-13T07:51:57.627Z,11.20
2023-01-13T07:54:39.743Z,11.40
2023-01-13T07:57:11.351Z,10.30
2023-01-13T07:59:40.756Z,12.20
2023-01-13T08:02:29.744Z,8.90
2023-01-13T08:04:58.451Z,10.00
2023-01-13T08:07:29.966Z,10.90
2023-01-13T08:09:58.818Z,12.00
2023-01-13T08:12:51.930Z,11.40
2023-01-13T08:15:25.179Z,12.00
2023-01-13T08:17:53.985Z,12.20
2023-01-13T08:20:23.341Z,10.60
2023-01-13T08:22:51.835Z,12.80
2023-01-13T08:25:20.890Z,10.60
2023-01-13T08:27:51.097Z,13.40
2023-01-13T08:30:19.602Z,9.30
2023-01-13T08:32:49.513Z,10.70
2023-01-13T08:35:19.269Z,9.00
2023-01-13T08:37:48.632Z,8.90
2023-01-13T08:40:21.086Z,8.40
2023-01-13T08:42:49.501Z,10.80
2023-01-13T08:45:18.389Z,9.70
2023-01-13T08:47:47.784Z,8.70
2023-01-13T08:50:16.376Z,11.60
2023-01-13T08:52:45.620Z,11.90
2023-01-13T08:55:14.892Z,10.30
2023-01-13T08:57:43.237Z,9.50
2023-01-13T09:00:12.267Z,9.30
2023-01-13T09:02:40.550Z,9.00
2023-01-13T09:05:10.488Z,11.00
2023-01-13T09:07:39.146Z,10.50
2023-01-13T09:10:08.669Z,9.30
2023-01-13T09:12:55.660Z,10.80
2023-01-13T09:15:23.938Z,10.70
2023-01-13T09:17:52.231Z,9.80
2023-01-13T09:20:20.555Z,10.30
2023-01-13T09:22:48.815Z,11.30
2023-01-13T09:25:17.142Z,12.10
2023-01-13T09:27:45.336Z,10.20
2023-01-13T09:30:13.847Z,10.60
2023-01-13T09:32:42.075Z,10.40
2023-01-13T09:35:10.280Z,9.30
2023-01-13T09:37:40.748Z,9.50
2023-01-13T09:40:27.132Z,11.30
2023-01-13T09:43:22.012Z,10.80
2023-01-13T09:45:58.334Z,11.20
2023-01-13T09:48:52.409Z,10.70
2023-01-13T09:51:33.323Z,12.70
2023-01-13T09:54:20.999Z,9.40
2023-01-13T09:56:49.213Z,9.80
2023-01-13T09:59:17.536Z,9.70
2023-01-13T10:01:59.791Z,10.30
2023-01-13T10:04:28.305Z,10.40
2023-01-13T10:07:02.484Z,9.40
2023-01-13T10:09:33.881Z,13.00
2023-01-13T10:12:21.876Z,9.80
2023-01-13T10:14:56.202Z,12.10
2023-01-13T10:17:43.312Z,11.80
2023-01-13T10:20:31.555Z,11.60
2023-01-13T10:23:34.836Z,11.70
2023-01-13T10:26:34.522Z,12.60
2023-01-13T10:29:02.774Z,15.80
2023-01-13T10:31:31.176Z,12.90
2023-01-13T10:34:02.168Z,9.90
2023-01-13T10:36:30.808Z,10.90
2023-01-13T10:39:10.555Z,11.00
2023-01-13T10:41:38.849Z,9.50
2023-01-13T10:44:16.477Z,9.80
2023-01-13T10:46:55.676Z,11.20
2023-01-13T10:49:39.055Z,10.30
2023-01-13T10:52:27.216Z,9.80
2023-01-13T10:54:56.180Z,11.20
2023-01-13T10:57:27.382Z,12.20
2023-01-13T10:59:56.615Z,11.30
2023-01-13T11:02:27.185Z,12.70
2023-01-13T11:04:55.903Z,11.30
2023-01-13T11:07:30.088Z,11.70
2023-01-13T11:13:26.574Z,10.60
2023-01-13T11:16:12.156Z,10.20
2023-01-13T11:19:02.263Z,11.50
2023-01-13T11:21:39.062Z,9.70
2023-01-13T11:24:21.783Z,11.50
2023-01-13T11:27:02.317Z,11.40
2023-01-13T11:30:00.432Z,12.60
2023-01-13T11:32:33.610Z,10.80
2023-01-13T11:35:11.356Z,12.40
2023-01-13T11:37:45.512Z,10.70
2023-01-13T11:40:21.703Z,11.70
2023-01-13T11:43:03.987Z,11.90
2023-01-13T11:45:44.268Z,11.60
2023-01-13T11:48:16.426Z,12.40
2023-01-13T11:50:54.211Z,10.60
2023-01-13T11:53:33.342Z,11.00
2023-01-13T11:56:13.867Z,9.40
2023-01-13T11:58:53.439Z,11.40
2023-01-13T12:01:28.538Z,10.80
2023-01-13T12:04:26.210Z,9.70
2023-01-13T12:07:14.264Z,9.00
2023-01-13T12:09:54.878Z,10.00
2023-01-13T12:12:44.863Z,14.90
2023-01-13T12:15:13.058Z,9.20
2023-01-13T12:17:53.041Z,10.50
2023-01-13T12:20:44.088Z,11.10
2023-01-13T12:23:35.504Z,9.70
2023-01-13T12:26:10.590Z,10.80
2023-01-13T12:29:01.016Z,10.70
2023-01-13T12:31:32.212Z,11.60
2023-01-13T12:34:09.614Z,13.50
2023-01-13T12:36:50.230Z,10.70
2023-01-13T12:39:40.408Z,9.40
2023-01-13T12:42:29.821Z,12.50
2023-01-13T12:45:10.452Z,12.80
2023-01-13T12:47:40.372Z,13.80
2023-01-13T12:50:24.176Z,9.80
2023-01-13T12:53:21.573Z,16.50
2023-01-13T12:55:53.431Z,15.60
2023-01-13T12:58:28.775Z,12.60
2023-01-13T13:01:01.756Z,12.10
2023-01-13T13:03:35.666Z,13.30
2023-01-13T13:06:19.053Z,13.50
2023-01-13T13:08:51.896Z,11.60
2023-01-13T13:11:54.558Z,12.10
2023-01-13T13:14:38.340Z,12.30
2023-01-13T13:17:29.299Z,12.90
2023-01-13T13:19:59.971Z,13.20
2023-01-13T13:22:28.750Z,12.50
2023-01-13T13:24:59.840Z,12.70
2023-01-13T13:27:27.955Z,11.20
2023-01-13T13:30:15.380Z,14.90
2023-01-13T13:33:08.618Z,14.80
2023-01-13T13:36:03.275Z,12.70
2023-01-13T13:41:43.321Z,14.10
2023-01-13T13:44:41.557Z,15.20
2023-01-13T13:47:10.201Z,13.10
2023-01-13T13:49:46.033Z,16.00
2023-01-13T13:52:38.780Z,14.70
2023-01-13T13:55:20.284Z,13.30
2023-01-13T13:57:54.482Z,13.80
2023-01-13T14:00:29.706Z,13.60
2023-01-13T14:03:02.018Z,11.20
2023-01-13T14:05:36.478Z,13.50
2023-01-13T14:08:18.100Z,13.80
2023-01-13T14:10:46.809Z,15.40
2023-01-13T14:13:38.419Z,15.10
2023-01-13T14:16:11.380Z,15.30
2023-01-13T14:18:48.249Z,14.40
2023-01-13T14:21:25.849Z,12.50
2023-01-13T14:23:57.313Z,15.50
2023-01-13T14:26:34.316Z,17.90
2023-01-13T14:29:03.553Z,16.30
2023-01-13T14:31:32.705Z,16.20
2023-01-13T14:34:32.497Z,15.70
2023-01-13T14:36:53.495Z,22.50
2023-01-13T14:39:32.841Z,15.10
2023-01-13T14:42:01.216Z,15.50
2023-01-13T14:44:37.051Z,14.70
2023-01-13T14:47:19.970Z,13.50
2023-01-13T14:50:02.559Z,13.40
2023-01-13T14:52:46.729Z,15.00
2023-01-13T14:55:31.215Z,20.80
2023-01-13T14:58:31.249Z,23.70
2023-01-13T15:01:36.656Z,21.10
2023-01-13T15:04:38.433Z,20.00
2023-01-13T15:07:23.505Z,19.90
2023-01-13T15:09:55.340Z,22.60
2023-01-13T15:12:31.603Z,20.70
2023-01-13T15:15:00.509Z,18.20
2023-01-13T15:17:28.713Z,25.10
2023-01-13T15:19:57.002Z,20.10
2023-01-13T15:22:25.249Z,21.90
2023-01-13T15:24:53.597Z,20.30
2023-01-13T15:27:26.125Z,23.30
2023-01-13T15:29:54.428Z,19.00
2023-01-13T15:32:22.871Z,17.10
2023-01-13T15:34:53.266Z,16.20
2023-01-13T15:37:21.940Z,15.00
2023-01-13T15:39:50.767Z,16.80
2023-01-13T15:42:37.776Z,14.80
2023-01-13T15:45:25.153Z,14.70
2023-01-13T15:47:53.389Z,14.60
2023-01-13T15:50:23.148Z,15.20
2023-01-13T15:52:51.438Z,14.70
2023-01-13T15:55:19.673Z,15.10
2023-01-13T15:57:50.475Z,16.40
2023-01-13T16:00:21.784Z,13.90
2023-01-13T16:02:50.353Z,15.70
2023-01-13T16:05:18.726Z,14.50
2023-01-13T16:07:47.420Z,15.00
2023-01-13T16:10:27.824Z,15.30
2023-01-13T16:12:56.112Z,14.60
2023-01-13T16:15:26.243Z,16.70
2023-01-13T16:18:01.292Z,20.20
2023-01-13T16:20:29.651Z,20.00
2023-01-13T16:22:57.869Z,19.10
2023-01-13T16:25:27.615Z,16.50
2023-01-13T16:27:55.860Z,20.90
2023-01-13T16:30:26.202Z,18.20
2023-01-13T16:32:55.489Z,16.70
2023-01-13T16:35:25.292Z,23.20
2023-01-13T16:37:54.379Z,26.90
2023-01-13T16:40:31.188Z,23.70
2023-01-13T16:43:02.033Z,28.10
2023-01-13T16:45:31.774Z,19.80
2023-01-13T16:48:00.470Z,25.20
2023-01-13T16:50:41.396Z,18.60
2023-01-13T16:53:10.560Z,17.00
2023-01-13T16:55:40.980Z,21.30
2023-01-13T16:58:18.006Z,16.20
2023-01-13T17:00:47.670Z,24.00
2023-01-13T17:03:17.046Z,20.50
2023-01-13T17:05:49.751Z,23.30
2023-01-13T17:08:18.325Z,18.20
2023-01-13T17:10:47.415Z,19.80
2023-01-13T17:13:17.293Z,15.70
2023-01-13T17:15:46.358Z,19.20
2023-01-13T17:18:14.519Z,21.00
2023-01-13T17:20:42.704Z,17.90
2023-01-13T17:23:10.912Z,20.20
2023-01-13T17:25:39.123Z,22.20
2023-01-13T17:28:07.362Z,21.70
2023-01-13T17:30:35.597Z,18.80
2023-01-13T17:33:03.902Z,19.50
2023-01-13T17:35:32.105Z,25.30
2023-01-13T17:38:02.161Z,24.30
2023-01-13T17:40:30.314Z,19.90
2023-01-13T17:42:58.572Z,19.70
2023-01-13T17:45:27.066Z,25.20
2023-01-13T17:48:00.997Z,21.60
2023-01-13T17:50:30.984Z,21.40
2023-01-13T17:52:59.244Z,22.70
2023-01-13T17:55:27.493Z,24.30
2023-01-13T17:57:55.766Z,28.80
2023-01-13T18:00:24.033Z,26.40
2023-01-13T18:02:52.673Z,23.30
2023-01-13T18:05:21.646Z,23.20
2023-01-13T18:07:51.169Z,21.60
2023-01-13T18:10:19.615Z,17.40
2023-01-13T18:12:47.787Z,16.80
2023-01-13T18:15:16.096Z,17.60
2023-01-13T18:17:46.301Z,20.10
2023-01-13T18:20:55.571Z,15.80
2023-01-13T18:23:42.640Z,14.00
2023-01-13T18:26:36.957Z,15.90
2023-01-13T18:29:06.225Z,15.70
2023-01-13T18:31:34.594Z,17.60
2023-01-13T18:34:02.842Z,18.10
2023-01-13T18:36:30.999Z,17.10
2023-01-13T18:38:59.226Z,19.30
2023-01-13T18:41:46.290Z,20.10
2023-01-13T18:44:14.683Z,15.10
2023-01-13T18:46:42.803Z,16.50
2023-01-13T18:49:11.045Z,15.40
2023-01-13T18:51:39.866Z,19.80
2023-01-13T18:54:07.996Z,18.80
2023-01-13T18:56:36.328Z,15.80
2023-01-13T18:59:04.816Z,15.70
2023-01-13T19:01:33.224Z,14.80
2023-01-13T19:04:03.260Z,13.70
2023-01-13T19:06:33.817Z,15.90
2023-01-13T19:09:08.946Z,16.20
2023-01-13T19:11:37.171Z,18.20
2023-01-13T19:14:05.375Z,16.90
2023-01-13T19:16:33.551Z,13.10
2023-01-13T19:19:02.506Z,15.20
2023-01-13T19:21:30.721Z,14.10
2023-01-13T19:23:58.959Z,14.60
2023-01-13T19:26:27.207Z,14.60
2023-01-13T19:28:55.498Z,13.30
2023-01-13T19:31:23.786Z,12.80
2023-01-13T19:33:52.132Z,12.70
2023-01-13T19:36:20.590Z,12.70
2023-01-13T19:38:48.784Z,16.80
2023-01-13T19:41:35.666Z,11.50
2023-01-13T19:44:23.330Z,12.60
2023-01-13T19:46:51.705Z,11.70
2023-01-13T19:49:20.213Z,14.10
2023-01-13T19:51:48.967Z,19.90
2023-01-13T19:54:17.162Z,19.30
2023-01-13T19:56:45.392Z,13.50
2023-01-13T19:59:13.784Z,17.30
2023-01-13T20:01:42.141Z,13.90
2023-01-13T20:04:14.644Z,16.10
2023-01-13T20:06:44.647Z,12.40
2023-01-13T20:09:12.951Z,18.80
2023-01-13T20:11:41.168Z,16.40
2023-01-13T20:14:09.654Z,22.10
2023-01-13T20:16:37.929Z,17.40
2023-01-13T20:19:06.151Z,19.20
2023-01-13T20:21:34.414Z,17.60
2023-01-13T20:24:02.764Z,20.10
2023-01-13T20:26:34.574Z,16.60
2023-01-13T20:29:02.866Z,12.60
2023-01-13T20:31:31.068Z,18.60
2023-01-13T20:33:59.297Z,17.90
2023-01-13T20:36:34.336Z,19.50
2023-01-13T20:39:04.770Z,19.60
2023-01-13T20:41:51.593Z,17.20
2023-01-13T20:44:19.795Z,19.60
2023-01-13T20:46:48.357Z,20.00
2023-01-13T20:49:16.738Z,17.30
2023-01-13T20:51:44.908Z,18.50
2023-01-13T20:54:13.601Z,24.30
2023-01-13T20:56:41.757Z,19.00
2023-01-13T20:59:10.174Z,17.20
2023-01-13T21:01:39.331Z,14.70
2023-01-13T21:04:08.685Z,17.10
2023-01-13T21:06:37.012Z,16.50
2023-01-13T21:09:05.284Z,12.60
2023-01-13T21:11:52.423Z,14.30
2023-01-13T21:14:42.478Z,16.20
2023-01-13T21:17:33.281Z,16.40
2023-01-13T21:20:04.141Z,13.50
2023-01-13T21:22:32.645Z,11.10
2023-01-13T21:25:02.566Z,13.00
2023-01-13T21:27:34.560Z,13.10
2023-01-13T21:30:02.926Z,13.90
2023-01-13T21:32:31.172Z,11.20
2023-01-13T21:34:59.452Z,11.00
2023-01-13T21:37:28.255Z,11.90
2023-01-13T21:39:56.531Z,12.50
2023-01-13T21:42:43.466Z,11.20
2023-01-13T21:45:30.461Z,9.30
2023-01-13T21:47:58.853Z,10.40
2023-01-13T21:50:29.166Z,11.70
2023-01-13T21:52:58.838Z,9.90
2023-01-13T21:55:28.802Z,13.60
2023-01-13T21:57:58.126Z,10.10
2023-01-13T22:00:28.531Z,12.10
2023-01-13T22:02:58.632Z,12.50
2023-01-13T22:05:27.518Z,10.70
2023-01-13T22:07:55.774Z,12.80
2023-01-13T22:10:26.708Z,11.40
2023-01-13T22:12:56.798Z,11.80
2023-01-13T22:15:28.448Z,10.80
2023-01-13T22:17:57.255Z,13.20
2023-01-13T22:20:25.896Z,13.50
2023-01-13T22:22:54.023Z,10.40
2023-01-13T22:25:23.897Z,13.90
2023-01-13T22:27:56.071Z,11.10
2023-01-13T22:30:25.340Z,10.20
2023-01-13T22:32:53.542Z,9.20
2023-01-13T22:35:21.718Z,9.60
2023-01-13T22:37:49.926Z,8.70
2023-01-13T22:40:18.120Z,9.60
2023-01-13T22:42:46.466Z,9.20
2023-01-13T22:45:15.095Z,10.10
2023-01-13T22:47:43.410Z,9.40
2023-01-13T22:50:12.815Z,8.90
2023-01-13T22:52:41.207Z,8.90
2023-01-13T22:55:10.191Z,8.30
2023-01-13T22:57:47.317Z,7.60
2023-01-13T23:00:19.342Z,9.10
2023-01-13T23:02:47.676Z,9.00
2023-01-13T23:05:16.016Z,9.60
2023-01-13T23:07:44.226Z,11.30
2023-01-13T23:10:12.445Z,11.40
2023-01-13T23:12:40.641Z,10.60
2023-01-13T23:15:09.260Z,11.70
2023-01-13T23:17:37.513Z,8.30
2023-01-13T23:20:05.933Z,9.30
2023-01-13T23:22:37.015Z,11.80
2023-01-13T23:25:05.577Z,12.10
2023-01-13T23:27:37.095Z,8.90
2023-01-13T23:30:08.831Z,9.30
2023-01-13T23:32:37.158Z,9.80
2023-01-13T23:35:05.779Z,9.20
2023-01-13T23:37:34.680Z,12.20
2023-01-13T23:40:03.017Z,11.90
2023-01-13T23:42:31.269Z,9.90
2023-01-13T23:44:59.493Z,8.20
2023-01-13T23:47:28.957Z,10.00
2023-01-13T23:49:57.149Z,10.10
2023-01-13T23:52:25.362Z,8.10
2023-01-13T23:54:53.588Z,10.60
2023-01-13T23:57:21.873Z,10.50
2023-01-13T23:59:50.034Z,8.30
